sensor_id;sensor_type;location;lat;lon;timestamp;temperature;humidity
60860;DHT22;46694;54.382;9.708;2023-04-08T00:02:02;6.80;99.90
60860;DHT22;46694;54.382;9.708;2023-04-08T00:04:41;6.80;99.90
60860;DHT22;46694;54.382;9.708;2023-04-08T00:07:21;6.80;99.90
60860;DHT22;46694;54.382;9.708;2023-04-08T00:10:00;6.80;99.90
60860;DHT22;46694;54.382;9.708;2023-04-08T00:12:40;6.80;99.90
60860;DHT22;46694;54.382;9.708;2023-04-08T00:15:19;6.80;99.90
60860;DHT22;46694;54.382;9.708;2023-04-08T00:17:58;6.80;99.90
60860;DHT22;46694;54.382;9.708;2023-04-08T00:20:37;6.80;99.90
60860;DHT22;46694;54.382;9.708;2023-04-08T00:23:17;6.90;99.90
60860;DHT22;46694;54.382;9.708;2023-04-08T00:25:56;6.90;99.90
60860;DHT22;46694;54.382;9.708;2023-04-08T00:28:36;6.80;99.90
60860;DHT22;46694;54.382;9.708;2023-04-08T00:31:16;6.80;99.90
60860;DHT22;46694;54.382;9.708;2023-04-08T00:33:55;6.80;99.90
60860;DHT22;46694;54.382;9.708;2023-04-08T00:36:34;6.80;99.90
60860;DHT22;46694;54.382;9.708;2023-04-08T00:39:14;6.80;99.90
60860;DHT22;46694;54.382;9.708;2023-04-08T00:41:53;6.80;99.90
60860;DHT22;46694;54.382;9.708;2023-04-08T00:44:34;6.80;99.90
60860;DHT22;46694;54.382;9.708;2023-04-08T00:47:14;6.80;99.90
60860;DHT22;46694;54.382;9.708;2023-04-08T00:49:54;6.80;99.90
60860;DHT22;46694;54.382;9.708;2023-04-08T00:52:33;6.80;99.90
60860;DHT22;46694;54.382;9.708;2023-04-08T00:55:13;6.80;99.90
60860;DHT22;46694;54.382;9.708;2023-04-08T00:57:52;6.80;99.90
60860;DHT22;46694;54.382;9.708;2023-04-08T01:00:32;6.80;99.90
60860;DHT22;46694;54.382;9.708;2023-04-08T01:03:13;6.80;99.90
60860;DHT22;46694;54.382;9.708;2023-04-08T01:08:46;6.80;99.90
60860;DHT22;46694;54.382;9.708;2023-04-08T01:11:26;6.80;99.90
60860;DHT22;46694;54.382;9.708;2023-04-08T01:14:06;6.80;99.90
60860;DHT22;46694;54.382;9.708;2023-04-08T01:16:48;6.80;99.90
60860;DHT22;46694;54.382;9.708;2023-04-08T01:19:31;6.80;99.90
60860;DHT22;46694;54.382;9.708;2023-04-08T01:22:17;6.80;99.90
60860;DHT22;46694;54.382;9.708;2023-04-08T01:25:04;6.80;99.90
60860;DHT22;46694;54.382;9.708;2023-04-08T01:27:47;6.80;99.90
60860;DHT22;46694;54.382;9.708;2023-04-08T01:30:27;6.80;99.90
60860;DHT22;46694;54.382;9.708;2023-04-08T01:33:12;6.80;99.90
60860;DHT22;46694;54.382;9.708;2023-04-08T01:35:54;6.80;99.90
60860;DHT22;46694;54.382;9.708;2023-04-08T01:38:34;6.80;99.90
60860;DHT22;46694;54.382;9.708;2023-04-08T01:41:15;6.80;99.90
60860;DHT22;46694;54.382;9.708;2023-04-08T01:43:55;6.80;99.90
60860;DHT22;46694;54.382;9.708;2023-04-08T01:46:35;6.80;99.90
60860;DHT22;46694;54.382;9.708;2023-04-08T01:49:15;6.80;99.90
60860;DHT22;46694;54.382;9.708;2023-04-08T01:51:55;6.80;99.90
60860;DHT22;46694;54.382;9.708;2023-04-08T01:54:35;6.80;99.90
60860;DHT22;46694;54.382;9.708;2023-04-08T01:57:16;6.80;99.90
60860;DHT22;46694;54.382;9.708;2023-04-08T02:00:05;6.80;99.90
60860;DHT22;46694;54.382;9.708;2023-04-08T02:02:46;6.80;99.90
60860;DHT22;46694;54.382;9.708;2023-04-08T02:05:25;6.80;99.90
60860;DHT22;46694;54.382;9.708;2023-04-08T02:08:05;6.80;99.90
60860;DHT22;46694;54.382;9.708;2023-04-08T02:10:44;6.80;99.90
60860;DHT22;46694;54.382;9.708;2023-04-08T02:13:24;6.80;99.90
60860;DHT22;46694;54.382;9.708;2023-04-08T02:16:05;6.80;99.90
60860;DHT22;46694;54.382;9.708;2023-04-08T02:19:10;6.80;99.90
60860;DHT22;46694;54.382;9.708;2023-04-08T02:21:54;6.80;99.90
60860;DHT22;46694;54.382;9.708;2023-04-08T02:24:35;6.80;99.90
60860;DHT22;46694;54.382;9.708;2023-04-08T02:27:16;6.80;99.90
60860;DHT22;46694;54.382;9.708;2023-04-08T02:29:56;6.80;99.90
60860;DHT22;46694;54.382;9.708;2023-04-08T02:32:36;6.80;99.90
60860;DHT22;46694;54.382;9.708;2023-04-08T02:35:16;6.90;99.90
60860;DHT22;46694;54.382;9.708;2023-04-08T02:37:56;6.90;99.90
60860;DHT22;46694;54.382;9.708;2023-04-08T02:40:35;6.90;99.90
60860;DHT22;46694;54.382;9.708;2023-04-08T02:43:14;6.90;99.90
60860;DHT22;46694;54.382;9.708;2023-04-08T02:45:54;6.90;99.90
60860;DHT22;46694;54.382;9.708;2023-04-08T02:48:34;6.90;99.90
60860;DHT22;46694;54.382;9.708;2023-04-08T02:51:13;6.90;99.90
60860;DHT22;46694;54.382;9.708;2023-04-08T02:53:52;6.90;99.90
60860;DHT22;46694;54.382;9.708;2023-04-08T02:56:32;6.90;99.90
60860;DHT22;46694;54.382;9.708;2023-04-08T02:59:11;6.90;99.90
60860;DHT22;46694;54.382;9.708;2023-04-08T03:01:50;6.90;99.90
60860;DHT22;46694;54.382;9.708;2023-04-08T03:04:30;6.90;99.90
60860;DHT22;46694;54.382;9.708;2023-04-08T03:07:09;6.90;99.90
60860;DHT22;46694;54.382;9.708;2023-04-08T03:09:48;6.90;99.90
60860;DHT22;46694;54.382;9.708;2023-04-08T03:12:28;6.90;99.90
60860;DHT22;46694;54.382;9.708;2023-04-08T03:15:07;6.90;99.90
60860;DHT22;46694;54.382;9.708;2023-04-08T03:17:47;6.90;99.90
60860;DHT22;46694;54.382;9.708;2023-04-08T03:20:26;6.90;99.90
60860;DHT22;46694;54.382;9.708;2023-04-08T03:23:06;6.90;99.90
60860;DHT22;46694;54.382;9.708;2023-04-08T03:25:45;6.90;99.90
60860;DHT22;46694;54.382;9.708;2023-04-08T03:28:24;6.90;99.90
60860;DHT22;46694;54.382;9.708;2023-04-08T03:31:04;6.90;99.90
60860;DHT22;46694;54.382;9.708;2023-04-08T03:33:43;6.90;99.90
60860;DHT22;46694;54.382;9.708;2023-04-08T03:36:22;6.90;99.90
60860;DHT22;46694;54.382;9.708;2023-04-08T03:39:02;6.90;99.90
60860;DHT22;46694;54.382;9.708;2023-04-08T03:41:41;6.90;99.90
60860;DHT22;46694;54.382;9.708;2023-04-08T03:44:21;6.90;99.90
60860;DHT22;46694;54.382;9.708;2023-04-08T03:47:00;6.90;99.90
60860;DHT22;46694;54.382;9.708;2023-04-08T03:49:39;6.90;99.90
60860;DHT22;46694;54.382;9.708;2023-04-08T03:52:19;6.90;99.90
60860;DHT22;46694;54.382;9.708;2023-04-08T03:54:58;6.80;99.90
60860;DHT22;46694;54.382;9.708;2023-04-08T03:57:37;6.80;99.90
60860;DHT22;46694;54.382;9.708;2023-04-08T04:00:17;6.80;99.90
60860;DHT22;46694;54.382;9.708;2023-04-08T04:02:56;6.80;99.90
60860;DHT22;46694;54.382;9.708;2023-04-08T04:05:35;6.80;99.90
60860;DHT22;46694;54.382;9.708;2023-04-08T04:08:14;6.80;99.90
60860;DHT22;46694;54.382;9.708;2023-04-08T04:10:54;6.80;99.90
60860;DHT22;46694;54.382;9.708;2023-04-08T04:13:33;6.90;99.90
60860;DHT22;46694;54.382;9.708;2023-04-08T04:16:13;6.90;99.90
60860;DHT22;46694;54.382;9.708;2023-04-08T04:18:52;6.90;99.90
60860;DHT22;46694;54.382;9.708;2023-04-08T04:21:31;6.90;99.90
60860;DHT22;46694;54.382;9.708;2023-04-08T04:24:10;6.90;99.90
60860;DHT22;46694;54.382;9.708;2023-04-08T04:26:51;6.80;99.90
60860;DHT22;46694;54.382;9.708;2023-04-08T04:29:31;6.80;99.90
60860;DHT22;46694;54.382;9.708;2023-04-08T04:32:10;6.80;99.90
60860;DHT22;46694;54.382;9.708;2023-04-08T04:34:49;6.80;99.90
60860;DHT22;46694;54.382;9.708;2023-04-08T04:37:28;6.80;99.90
60860;DHT22;46694;54.382;9.708;2023-04-08T04:40:08;6.80;99.90
60860;DHT22;46694;54.382;9.708;2023-04-08T04:42:47;6.80;99.90
60860;DHT22;46694;54.382;9.708;2023-04-08T04:45:27;6.80;99.90
60860;DHT22;46694;54.382;9.708;2023-04-08T04:48:06;6.80;99.90
60860;DHT22;46694;54.382;9.708;2023-04-08T04:50:53;6.80;99.90
60860;DHT22;46694;54.382;9.708;2023-04-08T04:53:33;6.70;99.90
60860;DHT22;46694;54.382;9.708;2023-04-08T04:56:12;6.70;99.90
60860;DHT22;46694;54.382;9.708;2023-04-08T04:58:52;6.70;99.90
60860;DHT22;46694;54.382;9.708;2023-04-08T05:01:31;6.70;99.90
60860;DHT22;46694;54.382;9.708;2023-04-08T05:04:10;6.70;99.90
60860;DHT22;46694;54.382;9.708;2023-04-08T05:06:49;6.70;99.90
60860;DHT22;46694;54.382;9.708;2023-04-08T05:09:29;6.70;99.90
60860;DHT22;46694;54.382;9.708;2023-04-08T05:12:09;6.70;99.90
60860;DHT22;46694;54.382;9.708;2023-04-08T05:14:48;6.70;99.90
60860;DHT22;46694;54.382;9.708;2023-04-08T05:17:27;6.70;99.90
60860;DHT22;46694;54.382;9.708;2023-04-08T05:20:06;6.70;99.90
60860;DHT22;46694;54.382;9.708;2023-04-08T05:22:46;6.70;99.90
60860;DHT22;46694;54.382;9.708;2023-04-08T05:25:25;6.70;99.90
60860;DHT22;46694;54.382;9.708;2023-04-08T05:28:05;6.70;99.90
60860;DHT22;46694;54.382;9.708;2023-04-08T05:30:50;6.80;99.90
60860;DHT22;46694;54.382;9.708;2023-04-08T05:33:30;6.80;99.90
60860;DHT22;46694;54.382;9.708;2023-04-08T05:36:10;6.80;99.90
60860;DHT22;46694;54.382;9.708;2023-04-08T05:38:50;6.80;99.90
60860;DHT22;46694;54.382;9.708;2023-04-08T05:41:29;6.80;99.90
60860;DHT22;46694;54.382;9.708;2023-04-08T05:44:08;6.80;99.90
60860;DHT22;46694;54.382;9.708;2023-04-08T05:46:47;6.80;99.90
60860;DHT22;46694;54.382;9.708;2023-04-08T05:49:27;6.80;99.90
60860;DHT22;46694;54.382;9.708;2023-04-08T05:52:06;6.80;99.90
60860;DHT22;46694;54.382;9.708;2023-04-08T05:54:45;6.80;99.90
60860;DHT22;46694;54.382;9.708;2023-04-08T05:57:25;6.70;99.90
60860;DHT22;46694;54.382;9.708;2023-04-08T06:00:05;6.70;99.90
60860;DHT22;46694;54.382;9.708;2023-04-08T06:02:46;6.70;99.90
60860;DHT22;46694;54.382;9.708;2023-04-08T06:05:25;6.70;99.90
60860;DHT22;46694;54.382;9.708;2023-04-08T06:08:04;6.70;99.90
60860;DHT22;46694;54.382;9.708;2023-04-08T06:10:47;6.70;99.90
60860;DHT22;46694;54.382;9.708;2023-04-08T06:13:28;6.70;99.90
60860;DHT22;46694;54.382;9.708;2023-04-08T06:16:11;6.70;99.90
60860;DHT22;46694;54.382;9.708;2023-04-08T06:18:52;6.70;99.90
60860;DHT22;46694;54.382;9.708;2023-04-08T06:21:31;6.80;99.90
60860;DHT22;46694;54.382;9.708;2023-04-08T06:24:10;6.80;99.90
60860;DHT22;46694;54.382;9.708;2023-04-08T06:26:49;6.80;99.90
60860;DHT22;46694;54.382;9.708;2023-04-08T06:29:30;6.90;99.90
60860;DHT22;46694;54.382;9.708;2023-04-08T06:32:12;6.90;99.90
60860;DHT22;46694;54.382;9.708;2023-04-08T06:34:51;6.90;99.90
60860;DHT22;46694;54.382;9.708;2023-04-08T06:37:31;6.90;99.90
60860;DHT22;46694;54.382;9.708;2023-04-08T06:40:12;6.90;99.90
60860;DHT22;46694;54.382;9.708;2023-04-08T06:42:51;6.90;99.90
60860;DHT22;46694;54.382;9.708;2023-04-08T06:45:32;6.80;99.90
60860;DHT22;46694;54.382;9.708;2023-04-08T06:48:12;6.80;99.90
60860;DHT22;46694;54.382;9.708;2023-04-08T06:50:51;6.80;99.90
60860;DHT22;46694;54.382;9.708;2023-04-08T06:53:30;6.80;99.90
60860;DHT22;46694;54.382;9.708;2023-04-08T06:56:11;6.90;99.90
60860;DHT22;46694;54.382;9.708;2023-04-08T06:58:50;7.00;99.90
60860;DHT22;46694;54.382;9.708;2023-04-08T07:01:30;7.00;99.90
60860;DHT22;46694;54.382;9.708;2023-04-08T07:04:10;7.00;99.90
60860;DHT22;46694;54.382;9.708;2023-04-08T07:06:50;7.00;99.90
60860;DHT22;46694;54.382;9.708;2023-04-08T07:09:29;7.10;99.90
60860;DHT22;46694;54.382;9.708;2023-04-08T07:12:09;7.20;99.90
60860;DHT22;46694;54.382;9.708;2023-04-08T07:14:48;7.30;99.90
60860;DHT22;46694;54.382;9.708;2023-04-08T07:17:28;7.40;99.90
60860;DHT22;46694;54.382;9.708;2023-04-08T07:20:08;7.50;99.90
60860;DHT22;46694;54.382;9.708;2023-04-08T07:22:48;7.60;99.90
60860;DHT22;46694;54.382;9.708;2023-04-08T07:25:27;7.80;99.90
60860;DHT22;46694;54.382;9.708;2023-04-08T07:28:07;7.90;99.90
60860;DHT22;46694;54.382;9.708;2023-04-08T07:30:47;8.00;99.90
60860;DHT22;46694;54.382;9.708;2023-04-08T07:33:26;8.10;99.90
60860;DHT22;46694;54.382;9.708;2023-04-08T07:36:06;8.10;99.90
60860;DHT22;46694;54.382;9.708;2023-04-08T07:38:47;8.10;99.90
60860;DHT22;46694;54.382;9.708;2023-04-08T07:41:27;8.10;99.90
60860;DHT22;46694;54.382;9.708;2023-04-08T07:44:06;8.20;99.90
60860;DHT22;46694;54.382;9.708;2023-04-08T07:46:46;8.50;99.90
60860;DHT22;46694;54.382;9.708;2023-04-08T07:49:29;8.70;99.90
60860;DHT22;46694;54.382;9.708;2023-04-08T07:52:09;8.80;99.90
60860;DHT22;46694;54.382;9.708;2023-04-08T07:54:48;8.90;99.90
60860;DHT22;46694;54.382;9.708;2023-04-08T07:57:28;8.80;99.90
60860;DHT22;46694;54.382;9.708;2023-04-08T08:00:08;8.70;99.90
60860;DHT22;46694;54.382;9.708;2023-04-08T08:02:47;8.70;99.90
60860;DHT22;46694;54.382;9.708;2023-04-08T08:05:27;8.70;99.90
60860;DHT22;46694;54.382;9.708;2023-04-08T08:08:07;8.70;99.90
60860;DHT22;46694;54.382;9.708;2023-04-08T08:10:49;8.60;99.90
60860;DHT22;46694;54.382;9.708;2023-04-08T08:13:29;8.60;99.90
60860;DHT22;46694;54.382;9.708;2023-04-08T08:16:08;8.60;99.90
60860;DHT22;46694;54.382;9.708;2023-04-08T08:18:49;8.60;99.90
60860;DHT22;46694;54.382;9.708;2023-04-08T08:21:29;8.70;99.90
60860;DHT22;46694;54.382;9.708;2023-04-08T08:24:09;8.70;99.90
60860;DHT22;46694;54.382;9.708;2023-04-08T08:26:48;8.80;99.90
60860;DHT22;46694;54.382;9.708;2023-04-08T08:29:28;8.80;99.90
60860;DHT22;46694;54.382;9.708;2023-04-08T08:32:08;8.90;99.90
60860;DHT22;46694;54.382;9.708;2023-04-08T08:34:47;8.80;99.90
60860;DHT22;46694;54.382;9.708;2023-04-08T08:37:27;8.80;99.90
60860;DHT22;46694;54.382;9.708;2023-04-08T08:40:07;8.90;99.90
60860;DHT22;46694;54.382;9.708;2023-04-08T08:42:51;9.10;99.90
60860;DHT22;46694;54.382;9.708;2023-04-08T08:45:32;9.30;99.90
60860;DHT22;46694;54.382;9.708;2023-04-08T08:48:11;9.50;99.90
60860;DHT22;46694;54.382;9.708;2023-04-08T08:50:51;9.50;99.90
60860;DHT22;46694;54.382;9.708;2023-04-08T08:53:31;9.60;99.90
60860;DHT22;46694;54.382;9.708;2023-04-08T08:56:10;9.80;99.90
60860;DHT22;46694;54.382;9.708;2023-04-08T08:58:50;10.00;99.90
60860;DHT22;46694;54.382;9.708;2023-04-08T09:01:33;10.10;99.90
60860;DHT22;46694;54.382;9.708;2023-04-08T09:04:18;10.20;99.90
60860;DHT22;46694;54.382;9.708;2023-04-08T09:07:10;10.30;99.90
60860;DHT22;46694;54.382;9.708;2023-04-08T09:09:52;10.40;99.90
60860;DHT22;46694;54.382;9.708;2023-04-08T09:12:32;10.40;99.90
60860;DHT22;46694;54.382;9.708;2023-04-08T09:15:12;10.30;99.90
60860;DHT22;46694;54.382;9.708;2023-04-08T09:17:52;10.20;99.90
60860;DHT22;46694;54.382;9.708;2023-04-08T09:20:31;10.20;99.90
60860;DHT22;46694;54.382;9.708;2023-04-08T09:23:10;10.20;99.90
60860;DHT22;46694;54.382;9.708;2023-04-08T09:25:50;10.30;99.90
60860;DHT22;46694;54.382;9.708;2023-04-08T09:28:30;10.30;99.90
60860;DHT22;46694;54.382;9.708;2023-04-08T09:31:24;10.50;99.90
60860;DHT22;46694;54.382;9.708;2023-04-08T09:34:13;10.70;99.90
60860;DHT22;46694;54.382;9.708;2023-04-08T09:36:55;10.80;99.90
60860;DHT22;46694;54.382;9.708;2023-04-08T09:39:34;10.80;99.90
60860;DHT22;46694;54.382;9.708;2023-04-08T09:42:14;10.90;99.90
60860;DHT22;46694;54.382;9.708;2023-04-08T09:44:54;10.90;99.90
60860;DHT22;46694;54.382;9.708;2023-04-08T09:47:41;10.90;99.90
60860;DHT22;46694;54.382;9.708;2023-04-08T09:50:30;10.90;99.90
60860;DHT22;46694;54.382;9.708;2023-04-08T09:53:19;11.00;99.90
60860;DHT22;46694;54.382;9.708;2023-04-08T09:56:01;11.10;99.90
60860;DHT22;46694;54.382;9.708;2023-04-08T09:58:58;11.10;99.90
60860;DHT22;46694;54.382;9.708;2023-04-08T10:01:39;11.20;99.90
60860;DHT22;46694;54.382;9.708;2023-04-08T10:04:25;11.30;99.90
60860;DHT22;46694;54.382;9.708;2023-04-08T10:07:07;11.40;99.90
60860;DHT22;46694;54.382;9.708;2023-04-08T10:09:47;11.50;99.90
60860;DHT22;46694;54.382;9.708;2023-04-08T10:12:27;11.50;99.90
60860;DHT22;46694;54.382;9.708;2023-04-08T10:15:33;11.50;99.90
60860;DHT22;46694;54.382;9.708;2023-04-08T10:20:56;11.70;99.90
60860;DHT22;46694;54.382;9.708;2023-04-08T10:23:52;11.60;99.90
60860;DHT22;46694;54.382;9.708;2023-04-08T10:26:43;11.40;99.90
60860;DHT22;46694;54.382;9.708;2023-04-08T10:29:29;11.30;99.90
60860;DHT22;46694;54.382;9.708;2023-04-08T10:32:11;11.20;99.90
60860;DHT22;46694;54.382;9.708;2023-04-08T10:35:06;11.10;99.90
60860;DHT22;46694;54.382;9.708;2023-04-08T10:37:45;11.00;99.90
60860;DHT22;46694;54.382;9.708;2023-04-08T10:40:24;11.00;99.90
60860;DHT22;46694;54.382;9.708;2023-04-08T10:43:04;10.90;99.90
60860;DHT22;46694;54.382;9.708;2023-04-08T10:45:44;10.90;99.90
60860;DHT22;46694;54.382;9.708;2023-04-08T10:48:29;11.00;99.90
60860;DHT22;46694;54.382;9.708;2023-04-08T10:51:09;11.20;99.90
60860;DHT22;46694;54.382;9.708;2023-04-08T10:54:05;11.20;99.90
60860;DHT22;46694;54.382;9.708;2023-04-08T10:56:51;11.30;99.90
60860;DHT22;46694;54.382;9.708;2023-04-08T10:59:31;11.30;99.90
60860;DHT22;46694;54.382;9.708;2023-04-08T11:02:14;11.30;99.90
60860;DHT22;46694;54.382;9.708;2023-04-08T11:04:54;11.30;99.90
60860;DHT22;46694;54.382;9.708;2023-04-08T11:07:38;11.40;99.90
60860;DHT22;46694;54.382;9.708;2023-04-08T11:10:19;11.40;99.90
60860;DHT22;46694;54.382;9.708;2023-04-08T11:12:59;11.40;99.90
60860;DHT22;46694;54.382;9.708;2023-04-08T11:15:38;11.30;99.90
60860;DHT22;46694;54.382;9.708;2023-04-08T11:18:18;11.30;99.90
60860;DHT22;46694;54.382;9.708;2023-04-08T11:20:59;11.30;99.90
60860;DHT22;46694;54.382;9.708;2023-04-08T11:23:40;11.30;99.90
60860;DHT22;46694;54.382;9.708;2023-04-08T11:26:20;11.30;99.90
60860;DHT22;46694;54.382;9.708;2023-04-08T11:28:59;11.30;99.90
60860;DHT22;46694;54.382;9.708;2023-04-08T11:31:41;11.30;99.90
60860;DHT22;46694;54.382;9.708;2023-04-08T11:34:22;11.30;99.90
60860;DHT22;46694;54.382;9.708;2023-04-08T11:37:02;11.40;99.90
60860;DHT22;46694;54.382;9.708;2023-04-08T11:39:42;11.40;99.90
60860;DHT22;46694;54.382;9.708;2023-04-08T11:42:28;11.50;99.90
60860;DHT22;46694;54.382;9.708;2023-04-08T11:45:12;11.60;99.90
60860;DHT22;46694;54.382;9.708;2023-04-08T11:47:52;11.60;99.90
60860;DHT22;46694;54.382;9.708;2023-04-08T11:50:32;11.70;99.90
60860;DHT22;46694;54.382;9.708;2023-04-08T11:53:18;11.80;99.90
60860;DHT22;46694;54.382;9.708;2023-04-08T11:56:14;11.90;99.90
60860;DHT22;46694;54.382;9.708;2023-04-08T11:58:54;11.90;99.90
60860;DHT22;46694;54.382;9.708;2023-04-08T12:01:33;11.90;99.90
60860;DHT22;46694;54.382;9.708;2023-04-08T12:04:12;12.00;99.90
60860;DHT22;46694;54.382;9.708;2023-04-08T12:06:51;12.10;99.90
60860;DHT22;46694;54.382;9.708;2023-04-08T12:09:31;12.20;99.90
60860;DHT22;46694;54.382;9.708;2023-04-08T12:12:11;12.30;99.90
60860;DHT22;46694;54.382;9.708;2023-04-08T12:14:50;12.30;99.90
60860;DHT22;46694;54.382;9.708;2023-04-08T12:17:30;12.20;99.90
60860;DHT22;46694;54.382;9.708;2023-04-08T12:20:10;12.30;99.90
60860;DHT22;46694;54.382;9.708;2023-04-08T12:22:59;12.30;99.90
60860;DHT22;46694;54.382;9.708;2023-04-08T12:25:39;12.40;99.90
60860;DHT22;46694;54.382;9.708;2023-04-08T12:28:18;12.40;99.90
60860;DHT22;46694;54.382;9.708;2023-04-08T12:30:58;12.50;99.90
60860;DHT22;46694;54.382;9.708;2023-04-08T12:33:38;12.40;99.90
60860;DHT22;46694;54.382;9.708;2023-04-08T12:36:17;12.40;99.90
60860;DHT22;46694;54.382;9.708;2023-04-08T12:38:57;12.40;99.90
60860;DHT22;46694;54.382;9.708;2023-04-08T12:41:36;12.40;99.90
60860;DHT22;46694;54.382;9.708;2023-04-08T12:44:16;12.40;99.90
60860;DHT22;46694;54.382;9.708;2023-04-08T12:46:55;12.40;99.90
60860;DHT22;46694;54.382;9.708;2023-04-08T12:49:36;12.40;99.90
60860;DHT22;46694;54.382;9.708;2023-04-08T12:52:15;12.40;99.90
60860;DHT22;46694;54.382;9.708;2023-04-08T12:54:55;12.30;99.90
60860;DHT22;46694;54.382;9.708;2023-04-08T12:57:34;12.30;99.90
60860;DHT22;46694;54.382;9.708;2023-04-08T13:00:14;12.20;99.90
60860;DHT22;46694;54.382;9.708;2023-04-08T13:02:54;12.20;99.90
60860;DHT22;46694;54.382;9.708;2023-04-08T13:05:33;12.20;99.90
60860;DHT22;46694;54.382;9.708;2023-04-08T13:08:20;12.30;99.90
60860;DHT22;46694;54.382;9.708;2023-04-08T13:11:00;12.20;99.90
60860;DHT22;46694;54.382;9.708;2023-04-08T13:13:40;12.10;99.90
60860;DHT22;46694;54.382;9.708;2023-04-08T13:16:19;12.10;99.90
60860;DHT22;46694;54.382;9.708;2023-04-08T13:18:59;12.10;99.90
60860;DHT22;46694;54.382;9.708;2023-04-08T13:21:39;12.10;99.90
60860;DHT22;46694;54.382;9.708;2023-04-08T13:24:18;12.10;99.90
60860;DHT22;46694;54.382;9.708;2023-04-08T13:26:58;12.00;99.90
60860;DHT22;46694;54.382;9.708;2023-04-08T13:29:38;12.00;99.90
60860;DHT22;46694;54.382;9.708;2023-04-08T13:35:27;12.00;99.90
60860;DHT22;46694;54.382;9.708;2023-04-08T13:38:07;12.10;99.90
60860;DHT22;46694;54.382;9.708;2023-04-08T13:40:46;12.20;99.90
60860;DHT22;46694;54.382;9.708;2023-04-08T13:43:25;12.30;99.90
60860;DHT22;46694;54.382;9.708;2023-04-08T13:46:05;12.30;99.90
60860;DHT22;46694;54.382;9.708;2023-04-08T13:48:44;12.40;99.90
60860;DHT22;46694;54.382;9.708;2023-04-08T13:51:24;12.50;99.90
60860;DHT22;46694;54.382;9.708;2023-04-08T13:54:05;12.50;99.90
60860;DHT22;46694;54.382;9.708;2023-04-08T13:56:45;12.40;99.90
60860;DHT22;46694;54.382;9.708;2023-04-08T13:59:24;12.40;99.90
60860;DHT22;46694;54.382;9.708;2023-04-08T14:02:03;12.50;99.90
60860;DHT22;46694;54.382;9.708;2023-04-08T14:04:42;12.60;99.90
60860;DHT22;46694;54.382;9.708;2023-04-08T14:07:25;12.60;99.90
60860;DHT22;46694;54.382;9.708;2023-04-08T14:10:04;12.60;99.90
60860;DHT22;46694;54.382;9.708;2023-04-08T14:12:44;12.40;99.90
60860;DHT22;46694;54.382;9.708;2023-04-08T14:15:24;12.20;99.90
60860;DHT22;46694;54.382;9.708;2023-04-08T14:18:04;12.10;99.90
60860;DHT22;46694;54.382;9.708;2023-04-08T14:20:43;12.00;99.90
60860;DHT22;46694;54.382;9.708;2023-04-08T14:23:23;12.00;99.90
60860;DHT22;46694;54.382;9.708;2023-04-08T14:26:02;12.00;99.90
60860;DHT22;46694;54.382;9.708;2023-04-08T14:28:41;12.00;99.90
60860;DHT22;46694;54.382;9.708;2023-04-08T14:31:20;12.10;99.90
60860;DHT22;46694;54.382;9.708;2023-04-08T14:34:00;12.10;99.90
60860;DHT22;46694;54.382;9.708;2023-04-08T14:36:39;12.10;99.90
60860;DHT22;46694;54.382;9.708;2023-04-08T14:39:19;12.20;99.90
60860;DHT22;46694;54.382;9.708;2023-04-08T14:41:58;12.20;99.90
60860;DHT22;46694;54.382;9.708;2023-04-08T14:44:37;12.30;99.90
60860;DHT22;46694;54.382;9.708;2023-04-08T14:47:17;12.30;99.90
60860;DHT22;46694;54.382;9.708;2023-04-08T14:49:56;12.30;99.90
60860;DHT22;46694;54.382;9.708;2023-04-08T14:52:35;12.20;99.90
60860;DHT22;46694;54.382;9.708;2023-04-08T14:55:14;12.20;99.90
60860;DHT22;46694;54.382;9.708;2023-04-08T14:57:55;12.20;99.90
60860;DHT22;46694;54.382;9.708;2023-04-08T15:00:34;12.20;99.90
60860;DHT22;46694;54.382;9.708;2023-04-08T15:03:14;12.20;99.90
60860;DHT22;46694;54.382;9.708;2023-04-08T15:05:53;12.30;99.90
60860;DHT22;46694;54.382;9.708;2023-04-08T15:08:39;12.30;99.90
60860;DHT22;46694;54.382;9.708;2023-04-08T15:11:21;12.30;99.90
60860;DHT22;46694;54.382;9.708;2023-04-08T15:14:01;12.30;99.90
60860;DHT22;46694;54.382;9.708;2023-04-08T15:16:41;12.20;99.90
60860;DHT22;46694;54.382;9.708;2023-04-08T15:19:20;12.20;99.90
60860;DHT22;46694;54.382;9.708;2023-04-08T15:21:59;12.30;99.90
60860;DHT22;46694;54.382;9.708;2023-04-08T15:24:39;12.20;99.90
60860;DHT22;46694;54.382;9.708;2023-04-08T15:27:18;12.20;99.90
60860;DHT22;46694;54.382;9.708;2023-04-08T15:29:57;12.20;99.90
60860;DHT22;46694;54.382;9.708;2023-04-08T15:32:37;12.10;99.90
60860;DHT22;46694;54.382;9.708;2023-04-08T15:35:16;12.00;99.90
60860;DHT22;46694;54.382;9.708;2023-04-08T15:37:55;12.00;99.90
60860;DHT22;46694;54.382;9.708;2023-04-08T15:40:35;12.00;99.90
60860;DHT22;46694;54.382;9.708;2023-04-08T15:43:14;11.90;99.90
60860;DHT22;46694;54.382;9.708;2023-04-08T15:45:53;11.90;99.90
60860;DHT22;46694;54.382;9.708;2023-04-08T15:48:33;11.80;99.90
60860;DHT22;46694;54.382;9.708;2023-04-08T15:51:13;11.80;99.90
60860;DHT22;46694;54.382;9.708;2023-04-08T15:53:52;11.70;99.90
60860;DHT22;46694;54.382;9.708;2023-04-08T15:56:34;11.70;99.90
60860;DHT22;46694;54.382;9.708;2023-04-08T15:59:14;11.70;99.90
60860;DHT22;46694;54.382;9.708;2023-04-08T16:01:53;11.60;99.90
60860;DHT22;46694;54.382;9.708;2023-04-08T16:04:33;11.60;99.90
60860;DHT22;46694;54.382;9.708;2023-04-08T16:07:13;11.60;99.90
60860;DHT22;46694;54.382;9.708;2023-04-08T16:09:52;11.50;99.90
60860;DHT22;46694;54.382;9.708;2023-04-08T16:12:31;11.50;99.90
60860;DHT22;46694;54.382;9.708;2023-04-08T16:15:10;11.50;99.90
60860;DHT22;46694;54.382;9.708;2023-04-08T16:17:50;11.50;99.90
60860;DHT22;46694;54.382;9.708;2023-04-08T16:20:30;11.40;99.90
60860;DHT22;46694;54.382;9.708;2023-04-08T16:23:10;11.40;99.90
60860;DHT22;46694;54.382;9.708;2023-04-08T16:25:53;11.30;99.90
60860;DHT22;46694;54.382;9.708;2023-04-08T16:28:44;11.20;99.90
60860;DHT22;46694;54.382;9.708;2023-04-08T16:31:24;11.20;99.90
60860;DHT22;46694;54.382;9.708;2023-04-08T16:34:03;11.20;99.90
60860;DHT22;46694;54.382;9.708;2023-04-08T16:36:42;11.10;99.90
60860;DHT22;46694;54.382;9.708;2023-04-08T16:39:22;11.10;99.90
60860;DHT22;46694;54.382;9.708;2023-04-08T16:42:01;11.10;99.90
60860;DHT22;46694;54.382;9.708;2023-04-08T16:44:40;11.00;99.90
60860;DHT22;46694;54.382;9.708;2023-04-08T16:47:20;11.00;99.90
60860;DHT22;46694;54.382;9.708;2023-04-08T16:49:59;11.00;99.90
60860;DHT22;46694;54.382;9.708;2023-04-08T16:52:39;11.00;99.90
60860;DHT22;46694;54.382;9.708;2023-04-08T16:55:20;10.90;99.90
60860;DHT22;46694;54.382;9.708;2023-04-08T16:58:00;10.90;99.90
60860;DHT22;46694;54.382;9.708;2023-04-08T17:00:40;10.80;99.90
60860;DHT22;46694;54.382;9.708;2023-04-08T17:03:19;10.80;99.90
60860;DHT22;46694;54.382;9.708;2023-04-08T17:06:06;10.70;99.90
60860;DHT22;46694;54.382;9.708;2023-04-08T17:08:45;10.70;99.90
60860;DHT22;46694;54.382;9.708;2023-04-08T17:11:25;10.60;99.90
60860;DHT22;46694;54.382;9.708;2023-04-08T17:14:04;10.60;99.90